createdAt,value
2023-05-04T03:56:03.477Z,2.63
2023-05-04T03:58:31.090Z,2.92
2023-05-04T04:01:03.255Z,3.88
2023-05-04T04:03:32.156Z,4.70
2023-05-04T04:05:59.166Z,4.13
2023-05-04T04:08:26.730Z,4.78
2023-05-04T04:10:53.583Z,3.65
2023-05-04T04:13:20.397Z,4.43
2023-05-04T04:15:47.287Z,4.47
2023-05-04T04:18:13.999Z,4.50
2023-05-04T04:20:40.904Z,4.40
2023-05-04T04:23:07.880Z,4.78
2023-05-04T04:25:34.702Z,5.50
2023-05-04T04:28:01.599Z,4.82
2023-05-04T04:30:28.403Z,3.83
2023-05-04T04:32:57.281Z,2.70
2023-05-04T04:35:24.090Z,2.42
2023-05-04T04:37:51.193Z,2.45
2023-05-04T04:40:18.169Z,2.78
2023-05-04T04:42:44.924Z,5.47
2023-05-04T04:45:12.227Z,7.15
2023-05-04T04:47:40.088Z,17.35
2023-05-04T04:50:07.645Z,22.40
2023-05-04T04:52:34.778Z,20.35
2023-05-04T04:55:01.469Z,12.63
2023-05-04T04:57:30.536Z,8.65
2023-05-04T05:00:09.692Z,5.13
2023-05-04T05:02:36.857Z,3.30
2023-05-04T05:05:03.857Z,3.20
2023-05-04T05:07:30.724Z,2.97
2023-05-04T05:09:57.500Z,5.75
2023-05-04T05:12:24.675Z,9.43
2023-05-04T05:14:51.517Z,9.25
2023-05-04T05:17:19.296Z,7.45
2023-05-04T05:19:46.829Z,3.55
2023-05-04T05:22:13.596Z,3.60
2023-05-04T05:24:40.376Z,3.17
2023-05-04T05:27:07.223Z,3.50
2023-05-04T05:29:35.276Z,3.20
2023-05-04T05:32:02.160Z,3.30
2023-05-04T05:34:28.928Z,3.72
2023-05-04T05:36:55.602Z,3.38
2023-05-04T05:39:22.487Z,3.35
2023-05-04T05:41:49.218Z,2.97
2023-05-04T05:44:16.042Z,3.40
2023-05-04T05:46:42.853Z,3.50
2023-05-04T05:49:09.631Z,3.30
2023-05-04T05:51:36.395Z,4.00
2023-05-04T05:54:03.117Z,3.65
2023-05-04T05:56:29.902Z,4.20
2023-05-04T05:58:56.665Z,3.13
2023-05-04T06:01:24.200Z,3.38
2023-05-04T06:03:51.368Z,3.00
2023-05-04T06:06:18.232Z,3.58
2023-05-04T06:08:44.936Z,3.20
2023-05-04T06:11:11.844Z,3.38
2023-05-04T06:13:39.412Z,2.90
2023-05-04T06:16:06.243Z,3.65
2023-05-04T06:18:32.970Z,2.92
2023-05-04T06:21:00.655Z,3.15
2023-05-04T06:23:28.733Z,3.08
2023-05-04T06:25:55.475Z,3.33
2023-05-04T06:28:22.189Z,3.20
2023-05-04T06:30:49.110Z,2.92
2023-05-04T06:33:15.993Z,3.13
2023-05-04T06:35:42.693Z,3.05
2023-05-04T06:38:09.434Z,3.08
2023-05-04T06:40:36.215Z,2.92
2023-05-04T06:43:03.040Z,2.88
2023-05-04T06:45:29.839Z,3.15
2023-05-04T06:47:56.615Z,2.95
2023-05-04T06:50:24.037Z,3.28
2023-05-04T06:52:51.909Z,2.75
2023-05-04T06:55:18.981Z,2.97
2023-05-04T06:57:45.787Z,3.22
2023-05-04T07:00:13.009Z,3.05
2023-05-04T07:02:39.789Z,2.70
2023-05-04T07:05:06.874Z,3.13
2023-05-04T07:07:33.950Z,3.33
2023-05-04T07:10:00.786Z,2.80
2023-05-04T07:12:27.868Z,3.00
2023-05-04T07:14:54.601Z,3.00
2023-05-04T07:17:22.036Z,3.50
2023-05-04T07:19:52.187Z,2.92
2023-05-04T07:22:20.839Z,2.88
2023-05-04T07:24:47.606Z,2.78
2023-05-04T07:27:14.324Z,3.40
2023-05-04T07:29:41.614Z,3.22
2023-05-04T07:32:08.405Z,2.83
2023-05-04T07:34:45.223Z,3.03
2023-05-04T07:37:13.761Z,3.40
2023-05-04T07:39:40.483Z,3.40
2023-05-04T07:42:08.254Z,2.95
2023-05-04T07:44:34.931Z,3.00
2023-05-04T07:47:01.944Z,2.90
2023-05-04T07:49:28.698Z,3.15
2023-05-04T07:51:55.483Z,3.45
2023-05-04T07:54:23.120Z,2.90
2023-05-04T07:56:50.032Z,2.88
2023-05-04T07:59:19.697Z,2.90
2023-05-04T08:01:47.208Z,2.63
2023-05-04T08:04:14.442Z,3.00
2023-05-04T08:06:41.646Z,2.97
2023-05-04T08:09:08.455Z,2.80
2023-05-04T08:11:35.417Z,3.30
2023-05-04T08:14:02.322Z,3.40
2023-05-04T08:16:29.395Z,2.90
2023-05-04T08:18:57.158Z,3.22
2023-05-04T08:21:26.394Z,3.03
2023-05-04T08:23:53.456Z,2.90
2023-05-04T08:26:20.390Z,3.20
2023-05-04T08:28:47.181Z,2.67
2023-05-04T08:31:13.987Z,3.33
2023-05-04T08:33:41.138Z,2.40
2023-05-04T08:36:09.241Z,3.03
2023-05-04T08:38:36.323Z,3.80
2023-05-04T08:41:06.763Z,2.83
2023-05-04T08:43:37.434Z,3.17
2023-05-04T08:46:04.934Z,2.85
2023-05-04T08:48:33.718Z,3.00
2023-05-04T08:51:02.273Z,2.53
2023-05-04T08:53:31.223Z,2.58
2023-05-04T08:56:04.016Z,2.45
2023-05-04T08:58:32.087Z,2.38
2023-05-04T09:01:00.700Z,2.63
2023-05-04T09:03:29.211Z,2.38
2023-05-04T09:05:57.078Z,2.83
2023-05-04T09:08:23.967Z,2.65
2023-05-04T09:10:50.705Z,2.60
2023-05-04T09:13:17.938Z,2.40
2023-05-04T09:15:57.900Z,2.88
2023-05-04T09:18:35.638Z,2.88
2023-05-04T09:21:02.442Z,2.70
2023-05-04T09:23:29.249Z,2.42
2023-05-04T09:25:56.684Z,2.72
2023-05-04T09:28:39.041Z,2.50
2023-05-04T09:31:07.288Z,2.78
2023-05-04T09:33:34.898Z,2.58
2023-05-04T09:36:14.814Z,2.70
2023-05-04T09:38:41.567Z,2.70
2023-05-04T09:41:08.643Z,2.97
2023-05-04T09:43:43.771Z,2.60
2023-05-04T09:46:19.818Z,3.00
2023-05-04T09:48:55.538Z,2.80
2023-05-04T09:51:24.442Z,3.40
2023-05-04T09:53:52.484Z,3.10
2023-05-04T09:56:39.085Z,2.97
2023-05-04T09:59:06.258Z,3.30
2023-05-04T10:01:33.794Z,3.03
2023-05-04T10:04:01.207Z,2.92
2023-05-04T10:06:30.157Z,3.00
2023-05-04T10:08:59.134Z,3.45
2023-05-04T10:11:26.239Z,3.00
2023-05-04T10:13:56.961Z,3.25
2023-05-04T10:16:47.737Z,3.35
2023-05-04T10:19:39.218Z,3.83
2023-05-04T10:22:30.137Z,3.30
2023-05-04T10:25:20.277Z,3.13
2023-05-04T10:27:52.420Z,3.17
2023-05-04T10:30:20.324Z,3.30
2023-05-04T10:32:55.619Z,3.75
2023-05-04T10:35:22.842Z,3.17
2023-05-04T10:37:56.547Z,3.83
2023-05-04T10:40:37.836Z,3.83
2023-05-04T10:43:05.217Z,3.72
2023-05-04T10:45:38.015Z,3.28
2023-05-04T10:48:05.577Z,3.65
2023-05-04T10:50:45.068Z,4.20
2023-05-04T10:53:12.998Z,3.50
2023-05-04T10:55:48.577Z,3.80
2023-05-04T10:58:21.509Z,4.07
2023-05-04T11:00:51.658Z,4.22
2023-05-04T11:03:19.227Z,4.00
2023-05-04T11:05:50.955Z,4.20
2023-05-04T11:08:19.597Z,3.65
2023-05-04T11:10:48.048Z,3.90
2023-05-04T11:13:18.358Z,4.45
2023-05-04T11:15:49.816Z,3.65
2023-05-04T11:18:30.917Z,3.78
2023-05-04T11:20:58.509Z,4.00
2023-05-04T11:23:25.691Z,3.65
2023-05-04T11:25:52.945Z,3.75
2023-05-04T11:28:19.792Z,3.97
2023-05-04T11:30:47.698Z,4.10
2023-05-04T11:33:16.182Z,3.28
2023-05-04T11:35:44.182Z,3.95
2023-05-04T11:38:11.264Z,3.60
2023-05-04T11:40:41.152Z,3.45
2023-05-04T11:43:13.269Z,3.70
2023-05-04T11:45:42.598Z,4.10
2023-05-04T11:48:09.897Z,3.88
2023-05-04T11:50:37.027Z,3.97
2023-05-04T11:56:09.712Z,3.88
2023-05-04T11:58:37.351Z,3.88
2023-05-04T12:01:05.853Z,3.75
2023-05-04T12:06:04.913Z,3.80
2023-05-04T12:08:36.250Z,4.07
2023-05-04T12:11:17.402Z,3.90
2023-05-04T12:13:45.810Z,3.85
2023-05-04T12:16:20.175Z,4.20
2023-05-04T12:18:48.027Z,4.22
2023-05-04T12:21:19.414Z,4.13
2023-05-04T12:23:47.042Z,4.05
2023-05-04T12:26:19.405Z,3.78
2023-05-04T12:28:46.993Z,3.38
2023-05-04T12:31:13.759Z,3.67
2023-05-04T12:33:40.753Z,3.67
2023-05-04T12:36:07.761Z,3.20
2023-05-04T12:38:34.975Z,3.42
2023-05-04T12:41:04.350Z,3.55
2023-05-04T12:43:32.945Z,2.85
2023-05-04T12:45:59.797Z,3.15
2023-05-04T12:48:28.977Z,4.10
2023-05-04T12:50:56.020Z,3.60
2023-05-04T12:53:25.728Z,3.78
2023-05-04T12:55:52.467Z,3.63
2023-05-04T12:58:19.534Z,3.70
2023-05-04T13:00:46.515Z,3.47
2023-05-04T13:03:13.765Z,3.50
2023-05-04T13:05:41.179Z,3.40
2023-05-04T13:08:10.624Z,3.15
2023-05-04T13:10:37.614Z,3.88
2023-05-04T13:13:04.851Z,4.10
2023-05-04T13:15:33.381Z,3.40
2023-05-04T13:18:00.611Z,3.10
2023-05-04T13:20:27.544Z,2.78
2023-05-04T13:22:57.668Z,2.88
2023-05-04T13:25:25.147Z,3.25
2023-05-04T13:27:52.655Z,2.85
2023-05-04T13:30:21.425Z,3.50
2023-05-04T13:32:49.103Z,3.30
2023-05-04T13:35:16.604Z,3.00
2023-05-04T13:37:43.307Z,3.13
2023-05-04T13:40:10.639Z,3.42
2023-05-04T13:42:37.672Z,3.08
2023-05-04T13:45:05.671Z,2.88
2023-05-04T13:47:34.539Z,3.13
2023-05-04T13:50:02.070Z,2.75
2023-05-04T13:52:28.928Z,3.53
2023-05-04T13:54:55.841Z,3.25
2023-05-04T13:57:22.591Z,2.75
2023-05-04T14:00:02.802Z,3.53
2023-05-04T14:02:37.758Z,2.95
2023-05-04T14:05:05.104Z,2.67
2023-05-04T14:07:32.336Z,2.63
2023-05-04T14:09:59.778Z,2.63
2023-05-04T14:12:27.375Z,2.38
2023-05-04T14:14:54.203Z,2.60
2023-05-04T14:17:21.006Z,2.70
2023-05-04T14:19:47.832Z,2.53
2023-05-04T14:22:14.586Z,2.45
2023-05-04T14:24:42.827Z,3.15
2023-05-04T14:27:09.663Z,2.50
2023-05-04T14:29:36.495Z,2.47
2023-05-04T14:32:03.309Z,2.72
2023-05-04T14:34:30.086Z,2.75
2023-05-04T14:36:56.924Z,2.20
2023-05-04T14:39:23.650Z,2.90
2023-05-04T14:41:52.718Z,2.60
2023-05-04T14:44:20.645Z,2.50
2023-05-04T14:46:47.457Z,2.72
2023-05-04T14:49:21.434Z,3.08
2023-05-04T14:51:51.821Z,2.42
2023-05-04T14:54:18.626Z,2.55
2023-05-04T14:56:47.453Z,2.40
2023-05-04T14:59:14.237Z,2.60
2023-05-04T15:01:41.028Z,4.20
2023-05-04T15:04:07.845Z,2.55
2023-05-04T15:06:34.633Z,2.35
2023-05-04T15:09:03.516Z,2.47
2023-05-04T15:11:30.387Z,2.90
2023-05-04T15:13:58.867Z,2.35
2023-05-04T15:16:32.131Z,1.95
2023-05-04T15:18:59.625Z,2.10
2023-05-04T15:21:27.828Z,2.50
2023-05-04T15:23:54.660Z,2.22
2023-05-04T15:26:22.126Z,1.95
2023-05-04T15:28:49.182Z,2.33
2023-05-04T15:31:18.034Z,2.30
2023-05-04T15:33:45.158Z,2.53
2023-05-04T15:36:11.969Z,2.20
2023-05-04T15:38:38.692Z,1.95
2023-05-04T15:41:06.067Z,2.17
2023-05-04T15:43:33.830Z,2.22
2023-05-04T15:46:00.895Z,2.55
2023-05-04T15:48:27.933Z,2.25
2023-05-04T15:50:54.981Z,2.00
2023-05-04T15:53:21.873Z,2.53
2023-05-04T15:55:48.698Z,2.25
2023-05-04T15:58:15.476Z,2.22
2023-05-04T16:00:42.266Z,2.17
2023-05-04T16:03:09.206Z,2.10
2023-05-04T16:05:39.008Z,2.33
2023-05-04T16:08:11.828Z,2.35
2023-05-04T16:10:38.610Z,2.10
2023-05-04T16:13:05.634Z,2.47
2023-05-04T16:15:32.788Z,2.17
2023-05-04T16:17:59.721Z,2.50
2023-05-04T16:20:28.369Z,2.10
2023-05-04T16:22:55.288Z,2.25
2023-05-04T16:25:22.124Z,2.13
2023-05-04T16:27:48.879Z,2.00
2023-05-04T16:30:15.847Z,1.98
2023-05-04T16:32:42.670Z,2.50
2023-05-04T16:35:09.810Z,2.15
2023-05-04T16:37:37.808Z,2.05
2023-05-04T16:40:14.023Z,2.42
2023-05-04T16:42:41.865Z,1.95
2023-05-04T16:45:11.041Z,1.98
2023-05-04T16:47:38.159Z,2.60
2023-05-04T16:50:05.802Z,2.50
2023-05-04T16:52:32.795Z,2.00
2023-05-04T16:55:00.010Z,2.25
2023-05-04T16:57:27.017Z,2.53
2023-05-04T16:59:54.928Z,2.60
2023-05-04T17:02:21.975Z,2.58
2023-05-04T17:04:48.760Z,2.00
2023-05-04T17:07:15.615Z,1.85
2023-05-04T17:09:42.442Z,2.13
2023-05-04T17:12:09.287Z,2.00
2023-05-04T17:14:36.051Z,2.30
2023-05-04T17:17:02.811Z,1.90
2023-05-04T17:19:29.500Z,1.83
2023-05-04T17:21:56.159Z,2.08
2023-05-04T17:24:23.526Z,1.95
2023-05-04T17:26:50.493Z,1.95
2023-05-04T17:29:17.144Z,2.40
2023-05-04T17:31:44.148Z,2.30
2023-05-04T17:34:11.104Z,1.75
2023-05-04T17:36:46.385Z,2.22
2023-05-04T17:39:39.015Z,2.25
2023-05-04T17:42:07.127Z,1.98
2023-05-04T17:44:34.409Z,2.08
2023-05-04T17:47:01.184Z,2.50
2023-05-04T17:49:27.896Z,2.30
2023-05-04T17:51:56.423Z,2.50
2023-05-04T17:54:23.139Z,2.33
2023-05-04T17:56:49.997Z,2.65
2023-05-04T17:59:17.719Z,2.38
2023-05-04T18:01:44.604Z,2.95
2023-05-04T18:04:11.615Z,2.78
2023-05-04T18:06:38.528Z,2.83
2023-05-04T18:09:05.679Z,2.50
2023-05-04T18:11:32.503Z,2.30
2023-05-04T18:13:59.435Z,2.75
2023-05-04T18:16:26.352Z,2.80
2023-05-04T18:18:53.231Z,2.78
2023-05-04T18:21:20.019Z,2.20
2023-05-04T18:23:46.892Z,2.30
2023-05-04T18:26:23.040Z,2.17
2023-05-04T18:28:50.076Z,2.10
2023-05-04T18:31:17.584Z,2.33
2023-05-04T18:33:44.726Z,2.78
2023-05-04T18:36:11.988Z,2.35
2023-05-04T18:38:39.564Z,2.05
2023-05-04T18:41:06.393Z,2.50
2023-05-04T18:43:33.200Z,2.30
2023-05-04T18:46:07.008Z,2.47
2023-05-04T18:48:33.795Z,2.47
2023-05-04T18:51:10.212Z,2.33
2023-05-04T18:53:36.917Z,2.50
2023-05-04T18:56:05.125Z,2.25
2023-05-04T18:58:32.304Z,2.22
2023-05-04T19:00:59.300Z,2.90
2023-05-04T19:03:26.291Z,2.80
2023-05-04T19:05:53.178Z,3.28
2023-05-04T19:08:20.444Z,3.47
2023-05-04T19:10:48.084Z,2.55
2023-05-04T19:13:16.080Z,3.13
2023-05-04T19:15:43.418Z,2.67
2023-05-04T19:18:10.825Z,2.90
2023-05-04T19:20:38.682Z,2.97
2023-05-04T19:23:05.626Z,3.50
2023-05-04T19:25:35.167Z,2.85
2023-05-04T19:28:08.372Z,2.53
2023-05-04T19:30:38.947Z,3.28
2023-05-04T19:33:57.202Z,2.70
2023-05-04T19:36:33.158Z,2.97
2023-05-04T19:39:00.316Z,2.80
2023-05-04T19:41:27.050Z,2.90
2023-05-04T19:43:53.835Z,2.50
2023-05-04T19:46:21.290Z,2.97
2023-05-04T19:48:48.169Z,3.47
2023-05-04T19:51:15.653Z,2.90
2023-05-04T19:53:42.507Z,3.00
2023-05-04T19:56:09.293Z,3.28
2023-05-04T19:58:36.251Z,3.22
2023-05-04T20:01:03.032Z,3.17
2023-05-04T20:03:30.310Z,2.85
2023-05-04T20:05:57.091Z,2.80
2023-05-04T20:08:23.795Z,3.25
2023-05-04T20:10:50.504Z,3.25
2023-05-04T20:13:17.268Z,2.85
2023-05-04T20:15:44.936Z,2.70
2023-05-04T20:18:11.699Z,2.90
2023-05-04T20:20:38.584Z,2.83
2023-05-04T20:23:05.342Z,3.10
2023-05-04T20:25:32.358Z,2.50
2023-05-04T20:27:59.103Z,3.53
2023-05-04T20:30:28.834Z,2.90
2023-05-04T20:32:55.780Z,3.10
2023-05-04T20:35:23.273Z,3.53
2023-05-04T20:37:49.940Z,3.30
2023-05-04T20:40:16.890Z,3.15
2023-05-04T20:42:44.110Z,2.90
2023-05-04T20:45:11.165Z,2.90
2023-05-04T20:47:38.237Z,3.72
2023-05-04T20:50:06.941Z,3.80
2023-05-04T20:52:33.980Z,3.55
2023-05-04T20:55:01.384Z,3.72
2023-05-04T20:57:28.232Z,3.50
2023-05-04T20:59:55.125Z,3.42
2023-05-04T21:02:21.840Z,4.35
2023-05-04T21:04:48.897Z,3.78
2023-05-04T21:07:15.878Z,4.20
2023-05-04T21:09:42.668Z,3.75
2023-05-04T21:12:09.783Z,3.30
2023-05-04T21:14:36.553Z,3.83
2023-05-04T21:17:03.251Z,3.78
2023-05-04T21:19:29.932Z,3.83
2023-05-04T21:21:56.669Z,4.40
2023-05-04T21:24:23.368Z,4.78
2023-05-04T21:26:50.392Z,4.22
